Welcome to our Virtual Airline
Sign-in:

Flight MFC622

  • Submitted By: Norm Richards
  • Departure Airport: Hydaburg SPB (HYG)
  • Arrival Airport: Point Baker SPB (KPB)
  • Aircraft: C185F (NC185MM)
  • Flight Time: 00.24.21
  • Date Submitted: 2018/03/17
  • Route: FOLLOW THE TOUR FP
  • Status: Accepted
Flight Details
Gross Revenue:
(3 load / $ 52.00 per unit
$ 156.00
Fuel Cost:
(34.9266 fuel used @ 5.1 / unit)
$ 178.13

Additional Log Information:

View Log

[06:59] ----- Flight Opened -----
[06:59] Cigar Box - 1.1.2.0
[06:59] FS: Prepar3D V4
[06:59] FSUIPC: v5.121
[06:59] Flight Number: MFC622
[06:59] FS Aircraft: DHC2 Beaver Amphibian N001MM New Misty
[06:59] FS Model: DHC2
[06:59] FS Type: DeHavilland
[06:59] Departure: HYG
[06:59] Arrival: KPB
[06:59] Flight Level: 2500
[06:59] Flight Type: H
[06:59] Passengers: 3
[06:59] FOB: 497 lbs
[06:59] Gate: n/a
[06:59] Crash Detection: Disabled
[06:59] Crash Detection Aircraft: Disabled
[06:59] Engines: 1 Piston
[06:59] NOTE: Boarding has started
[06:59] Parking Brake: Engaged
[06:59] Light Data: Navigation ON
[06:59] Light Data: Beacon ON
[06:59] Light Data: Landing lights ON
[06:59] Light Data: Taxi lights ON
[06:59] Light Data: Strobe lights ON
[06:59] Light Data: Instrument lights ON
[06:59] Light Data: Recognition lights ON
[06:59] Light Data: Wing lights ON
[06:59] Light Data: Logo lights ON
[06:59] Light Data: Cabin lights ON
[06:59] Main Door Closed
[06:59] COM1: 118.75
[06:59] COM2: 127.80
[06:59] Transponder: 1200
[06:59] NAV1: 115.90
[06:59] NAV2: 110.60
[06:59] ADF1: 890.0
[06:59] ADF2: 240.0
[06:59] Navigation Mode: GPS
[06:59] Navigation Mode: GPS
[07:02] Engine 1: Started
[07:02] NOTE: Pushing back
[07:02] Parking Brake: Released
[07:03] NOTE: Taxi started
[07:03] Flaps: Position 1
[07:03] NOTE: ----- TAKE OFF -----
[07:03] GS: 64 knots
[07:03] TAS: 64 knots
[07:03] IAS: 63 knots
[07:03] VS: 9 fpm
[07:03] FOB: 495 lbs
[07:03] Heading: 352°
[07:03] Pitch: 3°
[07:03] Bank: 0°
[07:03] Aircraft Weight: 4265.92 lbs
[07:03] Nearest Airport: HYG
[07:03] Distance: 0.69 miles
[07:03] Runway: ???
[07:03] Ground Surface: Water
[07:03] Ground Condition: Normal
[07:03] NOTE: Weather Report
[07:03] Wind Heading: 338°
[07:03] Wind Speed: 0 knots
[07:03] OAT: 21° C
[07:03] TAT: 21° C
[07:03] Precipitation: None
[07:03] Dew Point: 10° C
[07:03] Visibility: 62 miles
[07:03] METAR: No METAR available for HYG.
[07:03] NOTE: Climb started
[07:03] Flaps: Position 0
[07:03] GS: 81 knots
[07:03] TAS: 83 knots
[07:03] IAS: 82 knots
[07:03] VS: 1547 fpm
[07:03] View Mode: Virtual Cockpit
[07:14] NOTE: TOC reached
[07:14] NOTE: Cruise started
[07:14] GS: 138 knots
[07:14] TAS: 139 knots
[07:14] IAS: 127 knots
[07:14] VS: 199 fpm
[07:14] FOB: 450 lbs
[07:14] Heading: 267°
[07:14] Pitch: 1°
[07:14] Bank: 0°
[07:14] Aircraft Weight: 4220.21 lbs
[07:20] Recovery: Flight Saved
[07:22] Flaps: Position 1
[07:22] GS: 77 knots
[07:22] TAS: 84 knots
[07:22] IAS: 80 knots
[07:22] VS: -1714 fpm
[07:22] NOTE: TOD reached
[07:22] NOTE: Descent started
[07:22] GS: 91 knots
[07:22] TAS: 113 knots
[07:22] IAS: 108 knots
[07:22] VS: -6066 fpm
[07:22] FOB: 421 lbs
[07:22] Heading: 98°
[07:22] Pitch: 36°
[07:22] Bank: 34°
[07:22] Aircraft Weight: 4191.45 lbs
[07:22] NOTE: On approach
[07:22] Flaps: Position 2
[07:22] GS: 83 knots
[07:22] TAS: 84 knots
[07:22] IAS: 81 knots
[07:22] VS: -565 fpm
[07:24] Flaps: Position 1
[07:24] GS: 60 knots
[07:24] TAS: 61 knots
[07:24] IAS: 60 knots
[07:24] VS: -316 fpm
[07:24] NOTE: ----- LANDED -----
[07:24] Landing Rate: -280.67 fpm
[07:24] GS: 56 knots
[07:24] TAS: 57 knots
[07:24] IAS: 56 knots
[07:24] VS: -280 fpm
[07:24] FOB: 421 lbs
[07:24] Heading: 161°
[07:24] Pitch: 5°
[07:24] Bank: 1°
[07:24] Aircraft Weight: 4191.22 lbs
[07:24] Nearest Airport: GF19
[07:24] Distance: 0.96 miles
[07:24] Runway: ???
[07:24] Ground Surface: Water
[07:24] Ground Condition: Normal
[07:24] NOTE: Weather Report
[07:24] Wind Heading: 338°
[07:24] Wind Speed: 0 knots
[07:24] OAT: 21° C
[07:24] TAT: 22° C
[07:24] Precipitation: None
[07:24] Dew Point: 11° C
[07:24] Visibility: 62 miles
[07:24] METAR: KPBF 171053Z AUTO 21009KT 7SM OVC005 18/17 A2985 RMK AO2 SLP106 T01780172KPBG 171053Z AUTO VRB04KT 10SM CLR M05/M14 A2967 RMK AO2 SLP049 T10501144KPBH 171115Z AUTO 00000KT 10SM CLR M12/M14 A2998 RMK AO2 T11251139KPBI 171053Z 00000KT 10SM FEW020 15/14 A3008 RMK AO2 SLP184 T01500139KPBX 171115Z AUTO 00000KT 3SM +RA SCT029 BKN045 OVC075 03/00 A2987 RMK AO2 T00271002
[07:24] View Mode: Virtual Cockpit
[07:24] NOTE: Taxi started
[07:24] Flaps: Position 0
[07:26] NOTE: Arrived
[07:26] Parking Brake: Engaged
[07:27] Engine 1: Stopped
[07:27] Gate: n/a
[07:27] NOTE: Flight Completed
[07:27] FS Aircraft: DHC2 Beaver Amphibian N001MM New Misty
[07:27] FS Model: DHC2
[07:27] FS Type: DeHavilland
[07:27] FOB: 420 lbs
[07:27] Fuel Used: 77 lbs
[07:27] Flight Time: 00:24:21
[07:27] Flight Time (Dawn): 00:24:21
[07:27] Flight Time (Day): 00:00:00
[07:27] Flight Time (Dusk): 00:00:00
[07:27] Flight Time (Night): 00:00:00
[07:27] Total Landings: 1
[07:27] MaxSim Rate: 0x
[07:27] Cigar Box - 1.1.2.0
[07:27] ----- Flight Closed -----

Route Map